sensor_id;sensor_type;location;lat;lon;timestamp;P1;durP1;ratioP1;P2;durP2;ratioP2
28003;SDS011;15330;51.234;6.754;2024-02-14T00:01:25;11.32;;;4.50;;
28003;SDS011;15330;51.234;6.754;2024-02-14T00:03:50;7.15;;;4.10;;
28003;SDS011;15330;51.234;6.754;2024-02-14T00:06:16;11.30;;;4.78;;
28003;SDS011;15330;51.234;6.754;2024-02-14T00:08:41;15.68;;;4.60;;
28003;SDS011;15330;51.234;6.754;2024-02-14T00:11:06;8.88;;;4.30;;
28003;SDS011;15330;51.234;6.754;2024-02-14T00:13:32;10.13;;;4.22;;
28003;SDS011;15330;51.234;6.754;2024-02-14T00:15:59;8.57;;;4.05;;
28003;SDS011;15330;51.234;6.754;2024-02-14T00:18:25;9.98;;;4.22;;
28003;SDS011;15330;51.234;6.754;2024-02-14T00:20:50;3.85;;;3.15;;
28003;SDS011;15330;51.234;6.754;2024-02-14T00:23:16;7.72;;;3.22;;
28003;SDS011;15330;51.234;6.754;2024-02-14T00:25:41;4.28;;;3.35;;
28003;SDS011;15330;51.234;6.754;2024-02-14T00:28:06;6.63;;;3.25;;
28003;SDS011;15330;51.234;6.754;2024-02-14T00:30:32;9.65;;;3.58;;
28003;SDS011;15330;51.234;6.754;2024-02-14T00:32:57;7.38;;;3.45;;
28003;SDS011;15330;51.234;6.754;2024-02-14T00:35:23;9.90;;;3.67;;
28003;SDS011;15330;51.234;6.754;2024-02-14T00:37:49;7.13;;;3.10;;
28003;SDS011;15330;51.234;6.754;2024-02-14T00:40:14;5.35;;;2.63;;
28003;SDS011;15330;51.234;6.754;2024-02-14T00:42:39;4.00;;;2.60;;
28003;SDS011;15330;51.234;6.754;2024-02-14T00:45:06;7.38;;;2.63;;
28003;SDS011;15330;51.234;6.754;2024-02-14T00:47:34;9.05;;;2.80;;
28003;SDS011;15330;51.234;6.754;2024-02-14T00:49:59;7.93;;;3.00;;
28003;SDS011;15330;51.234;6.754;2024-02-14T00:52:25;6.85;;;2.75;;
28003;SDS011;15330;51.234;6.754;2024-02-14T00:54:50;6.57;;;2.97;;
28003;SDS011;15330;51.234;6.754;2024-02-14T00:57:16;6.07;;;3.13;;
28003;SDS011;15330;51.234;6.754;2024-02-14T00:59:43;4.72;;;2.70;;
28003;SDS011;15330;51.234;6.754;2024-02-14T01:02:08;7.22;;;3.22;;
28003;SDS011;15330;51.234;6.754;2024-02-14T01:04:33;9.05;;;3.10;;
28003;SDS011;15330;51.234;6.754;2024-02-14T01:07:01;11.00;;;2.97;;
28003;SDS011;15330;51.234;6.754;2024-02-14T01:09:27;8.07;;;3.30;;
28003;SDS011;15330;51.234;6.754;2024-02-14T01:11:53;7.75;;;3.08;;
28003;SDS011;15330;51.234;6.754;2024-02-14T01:14:18;5.47;;;2.75;;
28003;SDS011;15330;51.234;6.754;2024-02-14T01:16:44;5.47;;;2.60;;
28003;SDS011;15330;51.234;6.754;2024-02-14T01:19:10;6.47;;;2.10;;
28003;SDS011;15330;51.234;6.754;2024-02-14T01:21:37;5.28;;;2.28;;
28003;SDS011;15330;51.234;6.754;2024-02-14T01:24:02;5.13;;;1.88;;
28003;SDS011;15330;51.234;6.754;2024-02-14T01:26:30;4.43;;;2.20;;
28003;SDS011;15330;51.234;6.754;2024-02-14T01:28:55;3.72;;;1.70;;
28003;SDS011;15330;51.234;6.754;2024-02-14T01:31:21;4.13;;;1.70;;
28003;SDS011;15330;51.234;6.754;2024-02-14T01:33:47;6.63;;;1.88;;
28003;SDS011;15330;51.234;6.754;2024-02-14T01:36:12;4.35;;;1.90;;
28003;SDS011;15330;51.234;6.754;2024-02-14T01:38:38;3.05;;;1.60;;
28003;SDS011;15330;51.234;6.754;2024-02-14T01:41:05;4.75;;;1.88;;
28003;SDS011;15330;51.234;6.754;2024-02-14T01:43:30;4.00;;;2.33;;
28003;SDS011;15330;51.234;6.754;2024-02-14T01:45:57;3.47;;;1.85;;
28003;SDS011;15330;51.234;6.754;2024-02-14T01:48:31;4.80;;;1.83;;
28003;SDS011;15330;51.234;6.754;2024-02-14T01:50:58;4.07;;;1.75;;
28003;SDS011;15330;51.234;6.754;2024-02-14T01:53:25;4.97;;;1.65;;
28003;SDS011;15330;51.234;6.754;2024-02-14T01:55:55;3.78;;;1.65;;
28003;SDS011;15330;51.234;6.754;2024-02-14T01:58:21;2.38;;;1.70;;
28003;SDS011;15330;51.234;6.754;2024-02-14T02:00:47;2.90;;;1.45;;
28003;SDS011;15330;51.234;6.754;2024-02-14T02:03:12;3.20;;;1.52;;
28003;SDS011;15330;51.234;6.754;2024-02-14T02:05:38;7.72;;;1.48;;
28003;SDS011;15330;51.234;6.754;2024-02-14T02:08:04;3.45;;;1.40;;
28003;SDS011;15330;51.234;6.754;2024-02-14T02:10:32;2.17;;;1.42;;
28003;SDS011;15330;51.234;6.754;2024-02-14T02:12:58;2.33;;;1.23;;
28003;SDS011;15330;51.234;6.754;2024-02-14T02:15:27;2.38;;;1.20;;
28003;SDS011;15330;51.234;6.754;2024-02-14T02:17:53;3.92;;;1.50;;
28003;SDS011;15330;51.234;6.754;2024-02-14T02:20:19;3.17;;;1.63;;
28003;SDS011;15330;51.234;6.754;2024-02-14T02:22:46;2.15;;;1.63;;
28003;SDS011;15330;51.234;6.754;2024-02-14T02:25:13;2.85;;;1.35;;
28003;SDS011;15330;51.234;6.754;2024-02-14T02:27:38;1.52;;;1.40;;
28003;SDS011;15330;51.234;6.754;2024-02-14T02:30:07;3.38;;;1.50;;
28003;SDS011;15330;51.234;6.754;2024-02-14T02:32:33;2.95;;;1.40;;
28003;SDS011;15330;51.234;6.754;2024-02-14T02:34:59;3.60;;;1.48;;
28003;SDS011;15330;51.234;6.754;2024-02-14T02:37:27;3.65;;;1.55;;
28003;SDS011;15330;51.234;6.754;2024-02-14T02:39:54;6.20;;;1.52;;
28003;SDS011;15330;51.234;6.754;2024-02-14T02:42:21;2.25;;;1.10;;
28003;SDS011;15330;51.234;6.754;2024-02-14T02:44:46;1.33;;;1.20;;
28003;SDS011;15330;51.234;6.754;2024-02-14T02:47:13;2.67;;;1.33;;
28003;SDS011;15330;51.234;6.754;2024-02-14T02:49:41;2.97;;;1.30;;
28003;SDS011;15330;51.234;6.754;2024-02-14T02:52:09;3.53;;;1.20;;
28003;SDS011;15330;51.234;6.754;2024-02-14T02:54:37;3.10;;;1.42;;
28003;SDS011;15330;51.234;6.754;2024-02-14T02:57:08;2.28;;;1.20;;
28003;SDS011;15330;51.234;6.754;2024-02-14T02:59:35;1.30;;;1.15;;
28003;SDS011;15330;51.234;6.754;2024-02-14T03:02:01;2.92;;;1.73;;
28003;SDS011;15330;51.234;6.754;2024-02-14T03:04:27;4.57;;;1.55;;
28003;SDS011;15330;51.234;6.754;2024-02-14T03:06:52;2.63;;;1.77;;
28003;SDS011;15330;51.234;6.754;2024-02-14T03:09:18;4.70;;;1.60;;
28003;SDS011;15330;51.234;6.754;2024-02-14T03:11:46;2.53;;;1.70;;
28003;SDS011;15330;51.234;6.754;2024-02-14T03:14:15;5.43;;;1.83;;
28003;SDS011;15330;51.234;6.754;2024-02-14T03:16:40;3.50;;;1.90;;
28003;SDS011;15330;51.234;6.754;2024-02-14T03:19:06;4.10;;;1.90;;
28003;SDS011;15330;51.234;6.754;2024-02-14T03:21:31;3.65;;;1.70;;
28003;SDS011;15330;51.234;6.754;2024-02-14T03:24:03;5.18;;;2.15;;
28003;SDS011;15330;51.234;6.754;2024-02-14T03:26:30;5.95;;;1.88;;
28003;SDS011;15330;51.234;6.754;2024-02-14T03:28:59;3.50;;;1.90;;
28003;SDS011;15330;51.234;6.754;2024-02-14T03:31:25;5.28;;;1.92;;
28003;SDS011;15330;51.234;6.754;2024-02-14T03:33:51;3.65;;;2.35;;
28003;SDS011;15330;51.234;6.754;2024-02-14T03:36:17;4.70;;;1.95;;
28003;SDS011;15330;51.234;6.754;2024-02-14T03:38:43;6.05;;;2.42;;
28003;SDS011;15330;51.234;6.754;2024-02-14T03:41:08;3.97;;;1.95;;
28003;SDS011;15330;51.234;6.754;2024-02-14T03:43:34;5.35;;;2.10;;
28003;SDS011;15330;51.234;6.754;2024-02-14T03:45:59;2.70;;;2.08;;
28003;SDS011;15330;51.234;6.754;2024-02-14T03:48:25;4.43;;;2.08;;
28003;SDS011;15330;51.234;6.754;2024-02-14T03:50:50;8.52;;;2.35;;
28003;SDS011;15330;51.234;6.754;2024-02-14T03:53:16;4.70;;;2.95;;
28003;SDS011;15330;51.234;6.754;2024-02-14T03:55:42;6.05;;;2.05;;
28003;SDS011;15330;51.234;6.754;2024-02-14T03:58:07;3.20;;;2.40;;
28003;SDS011;15330;51.234;6.754;2024-02-14T04:00:33;5.53;;;2.47;;
28003;SDS011;15330;51.234;6.754;2024-02-14T04:03:00;3.83;;;2.65;;
28003;SDS011;15330;51.234;6.754;2024-02-14T04:05:27;3.55;;;2.10;;
28003;SDS011;15330;51.234;6.754;2024-02-14T04:07:53;4.80;;;2.20;;
28003;SDS011;15330;51.234;6.754;2024-02-14T04:10:19;5.03;;;2.30;;
28003;SDS011;15330;51.234;6.754;2024-02-14T04:12:45;6.05;;;2.42;;
28003;SDS011;15330;51.234;6.754;2024-02-14T04:15:11;4.05;;;2.20;;
28003;SDS011;15330;51.234;6.754;2024-02-14T04:17:37;5.43;;;2.80;;
28003;SDS011;15330;51.234;6.754;2024-02-14T04:20:03;3.47;;;2.35;;
28003;SDS011;15330;51.234;6.754;2024-02-14T04:22:29;5.53;;;2.70;;
28003;SDS011;15330;51.234;6.754;2024-02-14T04:24:55;3.40;;;2.28;;
28003;SDS011;15330;51.234;6.754;2024-02-14T04:27:21;3.72;;;2.58;;
28003;SDS011;15330;51.234;6.754;2024-02-14T04:29:47;5.88;;;2.70;;
28003;SDS011;15330;51.234;6.754;2024-02-14T04:32:13;4.97;;;2.53;;
28003;SDS011;15330;51.234;6.754;2024-02-14T04:34:39;5.68;;;2.85;;
28003;SDS011;15330;51.234;6.754;2024-02-14T04:37:05;5.13;;;2.40;;
28003;SDS011;15330;51.234;6.754;2024-02-14T04:39:40;3.65;;;2.40;;
28003;SDS011;15330;51.234;6.754;2024-02-14T04:42:06;3.92;;;2.33;;
28003;SDS011;15330;51.234;6.754;2024-02-14T04:44:34;3.95;;;2.40;;
28003;SDS011;15330;51.234;6.754;2024-02-14T04:46:59;6.07;;;2.60;;
28003;SDS011;15330;51.234;6.754;2024-02-14T04:49:25;3.90;;;2.50;;
28003;SDS011;15330;51.234;6.754;2024-02-14T04:51:51;5.00;;;2.58;;
28003;SDS011;15330;51.234;6.754;2024-02-14T04:54:17;6.25;;;2.80;;
28003;SDS011;15330;51.234;6.754;2024-02-14T04:56:43;5.38;;;2.50;;
28003;SDS011;15330;51.234;6.754;2024-02-14T04:59:10;5.90;;;2.40;;
28003;SDS011;15330;51.234;6.754;2024-02-14T05:01:35;4.05;;;2.75;;
28003;SDS011;15330;51.234;6.754;2024-02-14T05:04:01;5.45;;;2.33;;
28003;SDS011;15330;51.234;6.754;2024-02-14T05:06:26;6.50;;;2.70;;
28003;SDS011;15330;51.234;6.754;2024-02-14T05:08:52;6.00;;;2.45;;
28003;SDS011;15330;51.234;6.754;2024-02-14T05:11:18;6.50;;;2.60;;
28003;SDS011;15330;51.234;6.754;2024-02-14T05:13:43;3.67;;;2.42;;
28003;SDS011;15330;51.234;6.754;2024-02-14T05:16:09;7.88;;;2.90;;
28003;SDS011;15330;51.234;6.754;2024-02-14T05:18:38;5.57;;;3.22;;
28003;SDS011;15330;51.234;6.754;2024-02-14T05:21:07;14.05;;;3.05;;
28003;SDS011;15330;51.234;6.754;2024-02-14T05:23:33;7.05;;;3.17;;
28003;SDS011;15330;51.234;6.754;2024-02-14T05:25:59;5.65;;;3.30;;
28003;SDS011;15330;51.234;6.754;2024-02-14T05:28:27;9.02;;;3.60;;
28003;SDS011;15330;51.234;6.754;2024-02-14T05:30:53;9.45;;;3.38;;
28003;SDS011;15330;51.234;6.754;2024-02-14T05:33:18;9.13;;;3.30;;
28003;SDS011;15330;51.234;6.754;2024-02-14T05:35:47;8.35;;;4.20;;
28003;SDS011;15330;51.234;6.754;2024-02-14T05:38:15;9.50;;;3.60;;
28003;SDS011;15330;51.234;6.754;2024-02-14T05:40:40;10.65;;;4.30;;
28003;SDS011;15330;51.234;6.754;2024-02-14T05:43:08;7.28;;;3.88;;
28003;SDS011;15330;51.234;6.754;2024-02-14T05:45:34;7.60;;;4.03;;
28003;SDS011;15330;51.234;6.754;2024-02-14T05:48:00;7.72;;;3.65;;
28003;SDS011;15330;51.234;6.754;2024-02-14T05:50:25;7.65;;;3.75;;
28003;SDS011;15330;51.234;6.754;2024-02-14T05:52:51;4.90;;;3.05;;
28003;SDS011;15330;51.234;6.754;2024-02-14T05:55:16;5.10;;;3.20;;
28003;SDS011;15330;51.234;6.754;2024-02-14T05:57:43;4.57;;;3.00;;
28003;SDS011;15330;51.234;6.754;2024-02-14T06:00:09;5.88;;;2.90;;
28003;SDS011;15330;51.234;6.754;2024-02-14T06:02:35;5.97;;;3.70;;
28003;SDS011;15330;51.234;6.754;2024-02-14T06:05:01;6.38;;;3.28;;
28003;SDS011;15330;51.234;6.754;2024-02-14T06:07:26;7.28;;;3.50;;
28003;SDS011;15330;51.234;6.754;2024-02-14T06:09:53;7.65;;;3.65;;
28003;SDS011;15330;51.234;6.754;2024-02-14T06:12:18;7.68;;;3.78;;
28003;SDS011;15330;51.234;6.754;2024-02-14T06:14:44;9.30;;;3.78;;
28003;SDS011;15330;51.234;6.754;2024-02-14T06:17:09;5.63;;;3.17;;
28003;SDS011;15330;51.234;6.754;2024-02-14T06:19:34;7.65;;;3.88;;
28003;SDS011;15330;51.234;6.754;2024-02-14T06:22:01;6.07;;;4.13;;
28003;SDS011;15330;51.234;6.754;2024-02-14T06:24:26;9.27;;;3.75;;
28003;SDS011;15330;51.234;6.754;2024-02-14T06:26:51;5.93;;;3.83;;
28003;SDS011;15330;51.234;6.754;2024-02-14T06:29:17;10.88;;;3.55;;
28003;SDS011;15330;51.234;6.754;2024-02-14T06:31:42;4.93;;;3.63;;
28003;SDS011;15330;51.234;6.754;2024-02-14T06:34:08;4.68;;;3.47;;
28003;SDS011;15330;51.234;6.754;2024-02-14T06:36:33;5.78;;;3.38;;
28003;SDS011;15330;51.234;6.754;2024-02-14T06:38:59;7.60;;;3.78;;
28003;SDS011;15330;51.234;6.754;2024-02-14T06:41:24;6.57;;;3.72;;
28003;SDS011;15330;51.234;6.754;2024-02-14T06:43:50;5.28;;;3.20;;
28003;SDS011;15330;51.234;6.754;2024-02-14T06:46:15;6.22;;;2.97;;
28003;SDS011;15330;51.234;6.754;2024-02-14T06:48:41;5.68;;;3.30;;
28003;SDS011;15330;51.234;6.754;2024-02-14T06:51:06;6.80;;;3.55;;
28003;SDS011;15330;51.234;6.754;2024-02-14T06:53:32;6.13;;;3.50;;
28003;SDS011;15330;51.234;6.754;2024-02-14T06:55:58;7.63;;;4.00;;
28003;SDS011;15330;51.234;6.754;2024-02-14T06:58:23;6.38;;;3.72;;
28003;SDS011;15330;51.234;6.754;2024-02-14T07:00:49;6.15;;;3.30;;
28003;SDS011;15330;51.234;6.754;2024-02-14T07:03:15;4.47;;;3.30;;
28003;SDS011;15330;51.234;6.754;2024-02-14T07:05:40;5.30;;;3.45;;
28003;SDS011;15330;51.234;6.754;2024-02-14T07:08:06;8.20;;;3.17;;
28003;SDS011;15330;51.234;6.754;2024-02-14T07:10:32;5.70;;;3.58;;
28003;SDS011;15330;51.234;6.754;2024-02-14T07:12:58;6.60;;;3.17;;
28003;SDS011;15330;51.234;6.754;2024-02-14T07:15:23;7.65;;;3.55;;
28003;SDS011;15330;51.234;6.754;2024-02-14T07:17:53;4.60;;;3.00;;
28003;SDS011;15330;51.234;6.754;2024-02-14T07:20:18;4.80;;;2.92;;
28003;SDS011;15330;51.234;6.754;2024-02-14T07:22:45;5.60;;;3.20;;
28003;SDS011;15330;51.234;6.754;2024-02-14T07:25:12;6.75;;;3.20;;
28003;SDS011;15330;51.234;6.754;2024-02-14T07:27:38;4.38;;;2.97;;
28003;SDS011;15330;51.234;6.754;2024-02-14T07:30:03;4.22;;;3.05;;
28003;SDS011;15330;51.234;6.754;2024-02-14T07:32:30;5.55;;;3.25;;
28003;SDS011;15330;51.234;6.754;2024-02-14T07:34:56;5.43;;;4.22;;
28003;SDS011;15330;51.234;6.754;2024-02-14T07:37:21;6.30;;;3.22;;
28003;SDS011;15330;51.234;6.754;2024-02-14T07:39:46;5.50;;;3.15;;
28003;SDS011;15330;51.234;6.754;2024-02-14T07:42:12;5.47;;;2.88;;
28003;SDS011;15330;51.234;6.754;2024-02-14T07:44:38;4.95;;;2.80;;
28003;SDS011;15330;51.234;6.754;2024-02-14T07:47:04;6.20;;;2.58;;
28003;SDS011;15330;51.234;6.754;2024-02-14T07:49:29;4.90;;;2.60;;
28003;SDS011;15330;51.234;6.754;2024-02-14T07:51:55;7.13;;;3.00;;
28003;SDS011;15330;51.234;6.754;2024-02-14T07:54:20;6.72;;;2.70;;
28003;SDS011;15330;51.234;6.754;2024-02-14T07:56:46;6.65;;;2.75;;
28003;SDS011;15330;51.234;6.754;2024-02-14T07:59:11;8.45;;;3.13;;
28003;SDS011;15330;51.234;6.754;2024-02-14T08:01:37;4.20;;;2.40;;
28003;SDS011;15330;51.234;6.754;2024-02-14T08:04:02;9.05;;;2.78;;
28003;SDS011;15330;51.234;6.754;2024-02-14T08:06:29;5.55;;;2.40;;
28003;SDS011;15330;51.234;6.754;2024-02-14T08:08:54;8.98;;;2.38;;
28003;SDS011;15330;51.234;6.754;2024-02-14T08:11:24;4.45;;;2.60;;
28003;SDS011;15330;51.234;6.754;2024-02-14T08:13:50;8.00;;;2.63;;
28003;SDS011;15330;51.234;6.754;2024-02-14T08:16:16;5.28;;;2.65;;
28003;SDS011;15330;51.234;6.754;2024-02-14T08:18:41;7.80;;;2.72;;
28003;SDS011;15330;51.234;6.754;2024-02-14T08:21:09;7.07;;;2.45;;
28003;SDS011;15330;51.234;6.754;2024-02-14T08:23:35;7.55;;;2.38;;
28003;SDS011;15330;51.234;6.754;2024-02-14T08:26:00;8.32;;;2.85;;
28003;SDS011;15330;51.234;6.754;2024-02-14T08:28:26;5.07;;;2.25;;
28003;SDS011;15330;51.234;6.754;2024-02-14T08:30:51;9.13;;;2.85;;
28003;SDS011;15330;51.234;6.754;2024-02-14T08:33:17;9.00;;;3.00;;
28003;SDS011;15330;51.234;6.754;2024-02-14T08:35:42;7.10;;;2.70;;
28003;SDS011;15330;51.234;6.754;2024-02-14T08:38:08;9.57;;;2.75;;
28003;SDS011;15330;51.234;6.754;2024-02-14T08:40:33;5.65;;;2.67;;
28003;SDS011;15330;51.234;6.754;2024-02-14T08:42:59;5.68;;;2.35;;
28003;SDS011;15330;51.234;6.754;2024-02-14T08:45:24;5.10;;;2.60;;
28003;SDS011;15330;51.234;6.754;2024-02-14T08:47:50;6.80;;;2.58;;
28003;SDS011;15330;51.234;6.754;2024-02-14T08:50:16;5.10;;;2.30;;
28003;SDS011;15330;51.234;6.754;2024-02-14T08:52:42;5.20;;;2.65;;
28003;SDS011;15330;51.234;6.754;2024-02-14T08:55:07;10.00;;;2.65;;
28003;SDS011;15330;51.234;6.754;2024-02-14T08:57:39;6.45;;;2.58;;
28003;SDS011;15330;51.234;6.754;2024-02-14T09:00:06;6.70;;;2.95;;
28003;SDS011;15330;51.234;6.754;2024-02-14T09:02:32;8.30;;;2.65;;
28003;SDS011;15330;51.234;6.754;2024-02-14T09:05:00;8.55;;;2.47;;
28003;SDS011;15330;51.234;6.754;2024-02-14T09:07:26;7.28;;;2.50;;
28003;SDS011;15330;51.234;6.754;2024-02-14T09:09:52;5.47;;;2.10;;
28003;SDS011;15330;51.234;6.754;2024-02-14T09:12:17;4.82;;;2.20;;
28003;SDS011;15330;51.234;6.754;2024-02-14T09:14:42;5.07;;;2.00;;
28003;SDS011;15330;51.234;6.754;2024-02-14T09:17:08;6.45;;;2.33;;
28003;SDS011;15330;51.234;6.754;2024-02-14T09:19:34;7.95;;;2.78;;
28003;SDS011;15330;51.234;6.754;2024-02-14T09:22:00;5.70;;;2.05;;
28003;SDS011;15330;51.234;6.754;2024-02-14T09:24:25;4.68;;;2.00;;
28003;SDS011;15330;51.234;6.754;2024-02-14T09:26:51;5.05;;;2.53;;
28003;SDS011;15330;51.234;6.754;2024-02-14T09:29:16;5.63;;;2.30;;
28003;SDS011;15330;51.234;6.754;2024-02-14T09:31:42;6.30;;;1.98;;
28003;SDS011;15330;51.234;6.754;2024-02-14T09:34:07;7.82;;;2.30;;
28003;SDS011;15330;51.234;6.754;2024-02-14T09:36:33;5.90;;;2.20;;
28003;SDS011;15330;51.234;6.754;2024-02-14T09:38:58;5.88;;;2.22;;
28003;SDS011;15330;51.234;6.754;2024-02-14T09:41:25;10.85;;;2.30;;
28003;SDS011;15330;51.234;6.754;2024-02-14T09:44:12;6.30;;;2.42;;
28003;SDS011;15330;51.234;6.754;2024-02-14T09:46:38;6.10;;;1.73;;
28003;SDS011;15330;51.234;6.754;2024-02-14T09:49:03;5.75;;;2.20;;
28003;SDS011;15330;51.234;6.754;2024-02-14T09:51:30;8.25;;;2.22;;
28003;SDS011;15330;51.234;6.754;2024-02-14T09:53:56;10.50;;;2.25;;
28003;SDS011;15330;51.234;6.754;2024-02-14T09:56:28;6.78;;;2.25;;
28003;SDS011;15330;51.234;6.754;2024-02-14T09:58:53;6.18;;;2.13;;
28003;SDS011;15330;51.234;6.754;2024-02-14T10:01:23;13.98;;;2.35;;
28003;SDS011;15330;51.234;6.754;2024-02-14T10:03:52;8.00;;;2.08;;
28003;SDS011;15330;51.234;6.754;2024-02-14T10:06:19;4.55;;;2.10;;
28003;SDS011;15330;51.234;6.754;2024-02-14T10:08:48;7.57;;;2.30;;
28003;SDS011;15330;51.234;6.754;2024-02-14T10:11:15;7.93;;;2.10;;
28003;SDS011;15330;51.234;6.754;2024-02-14T10:13:45;16.77;;;2.25;;
28003;SDS011;15330;51.234;6.754;2024-02-14T10:16:12;6.05;;;2.05;;
28003;SDS011;15330;51.234;6.754;2024-02-14T10:18:38;3.97;;;1.60;;
28003;SDS011;15330;51.234;6.754;2024-02-14T10:21:04;3.78;;;1.58;;
28003;SDS011;15330;51.234;6.754;2024-02-14T10:23:29;7.50;;;1.70;;
28003;SDS011;15330;51.234;6.754;2024-02-14T10:25:55;5.22;;;1.95;;
28003;SDS011;15330;51.234;6.754;2024-02-14T10:28:21;6.47;;;1.98;;
28003;SDS011;15330;51.234;6.754;2024-02-14T10:30:47;9.63;;;1.98;;
28003;SDS011;15330;51.234;6.754;2024-02-14T10:33:16;6.07;;;2.05;;
28003;SDS011;15330;51.234;6.754;2024-02-14T10:35:42;7.70;;;2.30;;
28003;SDS011;15330;51.234;6.754;2024-02-14T10:38:08;7.53;;;1.85;;
28003;SDS011;15330;51.234;6.754;2024-02-14T10:40:37;7.63;;;2.53;;
28003;SDS011;15330;51.234;6.754;2024-02-14T10:43:05;7.85;;;2.00;;
28003;SDS011;15330;51.234;6.754;2024-02-14T10:45:31;10.07;;;2.67;;
28003;SDS011;15330;51.234;6.754;2024-02-14T10:47:57;7.82;;;2.58;;
28003;SDS011;15330;51.234;6.754;2024-02-14T10:50:25;10.40;;;2.50;;
28003;SDS011;15330;51.234;6.754;2024-02-14T10:52:53;6.80;;;2.20;;
28003;SDS011;15330;51.234;6.754;2024-02-14T10:55:24;9.70;;;2.17;;
28003;SDS011;15330;51.234;6.754;2024-02-14T10:57:51;5.10;;;1.85;;
28003;SDS011;15330;51.234;6.754;2024-02-14T11:00:19;4.05;;;1.85;;
28003;SDS011;15330;51.234;6.754;2024-02-14T11:02:45;5.15;;;1.88;;
28003;SDS011;15330;51.234;6.754;2024-02-14T11:05:14;7.15;;;1.90;;
28003;SDS011;15330;51.234;6.754;2024-02-14T11:07:45;6.05;;;1.95;;
28003;SDS011;15330;51.234;6.754;2024-02-14T11:10:15;9.73;;;2.25;;
28003;SDS011;15330;51.234;6.754;2024-02-14T11:12:42;5.65;;;1.88;;
28003;SDS011;15330;51.234;6.754;2024-02-14T11:15:11;8.52;;;1.70;;
28003;SDS011;15330;51.234;6.754;2024-02-14T11:17:47;3.63;;;1.52;;
28003;SDS011;15330;51.234;6.754;2024-02-14T11:20:20;2.50;;;1.70;;
28003;SDS011;15330;51.234;6.754;2024-02-14T11:25:28;5.13;;;1.80;;
28003;SDS011;15330;51.234;6.754;2024-02-14T11:27:58;9.73;;;2.00;;
28003;SDS011;15330;51.234;6.754;2024-02-14T11:30:31;5.85;;;1.75;;
28003;SDS011;15330;51.234;6.754;2024-02-14T11:35:49;6.30;;;1.83;;
28003;SDS011;15330;51.234;6.754;2024-02-14T11:38:16;4.18;;;1.63;;
28003;SDS011;15330;51.234;6.754;2024-02-14T11:40:42;5.38;;;1.40;;
28003;SDS011;15330;51.234;6.754;2024-02-14T11:43:18;4.55;;;1.73;;
28003;SDS011;15330;51.234;6.754;2024-02-14T11:45:48;4.00;;;1.52;;
28003;SDS011;15330;51.234;6.754;2024-02-14T11:48:20;3.13;;;1.38;;
28003;SDS011;15330;51.234;6.754;2024-02-14T11:50:46;6.75;;;1.73;;
28003;SDS011;15330;51.234;6.754;2024-02-14T11:53:12;6.53;;;1.80;;
28003;SDS011;15330;51.234;6.754;2024-02-14T11:55:42;2.75;;;1.30;;
28003;SDS011;15330;51.234;6.754;2024-02-14T11:58:10;5.28;;;1.77;;
28003;SDS011;15330;51.234;6.754;2024-02-14T12:00:40;3.88;;;1.40;;
28003;SDS011;15330;51.234;6.754;2024-02-14T12:03:07;8.43;;;1.65;;
28003;SDS011;15330;51.234;6.754;2024-02-14T12:05:38;7.22;;;1.60;;
28003;SDS011;15330;51.234;6.754;2024-02-14T12:08:06;7.47;;;1.80;;
28003;SDS011;15330;51.234;6.754;2024-02-14T12:10:33;5.72;;;1.80;;
28003;SDS011;15330;51.234;6.754;2024-02-14T12:13:07;5.40;;;1.60;;
28003;SDS011;15330;51.234;6.754;2024-02-14T12:15:46;7.25;;;1.70;;
28003;SDS011;15330;51.234;6.754;2024-02-14T12:18:13;3.55;;;1.40;;
28003;SDS011;15330;51.234;6.754;2024-02-14T12:20:39;4.03;;;1.73;;
28003;SDS011;15330;51.234;6.754;2024-02-14T12:23:05;7.03;;;2.00;;
28003;SDS011;15330;51.234;6.754;2024-02-14T12:25:39;5.35;;;1.80;;
28003;SDS011;15330;51.234;6.754;2024-02-14T12:28:05;7.68;;;1.88;;
28003;SDS011;15330;51.234;6.754;2024-02-14T12:33:14;7.38;;;1.90;;
28003;SDS011;15330;51.234;6.754;2024-02-14T12:35:44;5.28;;;2.13;;
28003;SDS011;15330;51.234;6.754;2024-02-14T12:38:11;11.63;;;2.20;;
28003;SDS011;15330;51.234;6.754;2024-02-14T12:40:37;9.20;;;2.65;;
28003;SDS011;15330;51.234;6.754;2024-02-14T12:43:03;7.85;;;2.65;;
28003;SDS011;15330;51.234;6.754;2024-02-14T12:45:30;12.23;;;3.10;;
28003;SDS011;15330;51.234;6.754;2024-02-14T12:47:56;8.27;;;2.38;;
28003;SDS011;15330;51.234;6.754;2024-02-14T12:50:22;5.53;;;2.85;;
28003;SDS011;15330;51.234;6.754;2024-02-14T12:52:47;5.72;;;2.00;;
28003;SDS011;15330;51.234;6.754;2024-02-14T12:55:13;5.82;;;2.28;;
28003;SDS011;15330;51.234;6.754;2024-02-14T12:57:39;8.30;;;2.10;;
28003;SDS011;15330;51.234;6.754;2024-02-14T13:00:06;5.97;;;2.05;;
28003;SDS011;15330;51.234;6.754;2024-02-14T13:02:33;4.57;;;1.77;;
28003;SDS011;15330;51.234;6.754;2024-02-14T13:04:59;5.70;;;1.90;;
28003;SDS011;15330;51.234;6.754;2024-02-14T13:07:26;6.53;;;1.65;;
28003;SDS011;15330;51.234;6.754;2024-02-14T13:09:52;6.32;;;1.83;;
28003;SDS011;15330;51.234;6.754;2024-02-14T13:12:18;4.35;;;1.60;;
28003;SDS011;15330;51.234;6.754;2024-02-14T13:14:43;7.88;;;2.03;;
28003;SDS011;15330;51.234;6.754;2024-02-14T13:17:09;8.82;;;2.10;;
28003;SDS011;15330;51.234;6.754;2024-02-14T13:19:36;3.38;;;1.55;;
28003;SDS011;15330;51.234;6.754;2024-02-14T13:22:01;7.50;;;1.88;;
28003;SDS011;15330;51.234;6.754;2024-02-14T13:24:27;3.65;;;1.67;;
28003;SDS011;15330;51.234;6.754;2024-02-14T13:26:53;4.68;;;1.95;;
28003;SDS011;15330;51.234;6.754;2024-02-14T13:29:19;6.50;;;2.00;;
28003;SDS011;15330;51.234;6.754;2024-02-14T13:31:44;5.13;;;1.73;;
28003;SDS011;15330;51.234;6.754;2024-02-14T13:34:10;4.88;;;1.55;;
28003;SDS011;15330;51.234;6.754;2024-02-14T13:36:36;6.10;;;1.70;;
28003;SDS011;15330;51.234;6.754;2024-02-14T13:39:02;6.25;;;1.58;;
28003;SDS011;15330;51.234;6.754;2024-02-14T13:41:27;6.38;;;2.00;;
28003;SDS011;15330;51.234;6.754;2024-02-14T13:43:53;4.35;;;1.63;;
28003;SDS011;15330;51.234;6.754;2024-02-14T13:46:19;5.82;;;1.52;;
28003;SDS011;15330;51.234;6.754;2024-02-14T13:48:44;2.90;;;1.30;;
28003;SDS011;15330;51.234;6.754;2024-02-14T13:51:10;2.72;;;1.52;;
28003;SDS011;15330;51.234;6.754;2024-02-14T13:53:35;5.15;;;1.42;;
28003;SDS011;15330;51.234;6.754;2024-02-14T13:56:00;4.00;;;1.85;;
28003;SDS011;15330;51.234;6.754;2024-02-14T13:58:26;4.43;;;1.30;;
28003;SDS011;15330;51.234;6.754;2024-02-14T14:00:51;4.90;;;1.10;;
28003;SDS011;15330;51.234;6.754;2024-02-14T14:03:17;3.15;;;1.30;;
28003;SDS011;15330;51.234;6.754;2024-02-14T14:05:43;3.35;;;1.15;;
28003;SDS011;15330;51.234;6.754;2024-02-14T14:08:08;4.20;;;1.27;;
28003;SDS011;15330;51.234;6.754;2024-02-14T14:10:34;1.52;;;1.02;;
28003;SDS011;15330;51.234;6.754;2024-02-14T14:12:59;1.33;;;1.17;;
28003;SDS011;15330;51.234;6.754;2024-02-14T14:15:24;3.63;;;0.90;;
28003;SDS011;15330;51.234;6.754;2024-02-14T14:17:51;0.60;;;0.60;;
28003;SDS011;15330;51.234;6.754;2024-02-14T14:20:17;0.70;;;0.70;;
28003;SDS011;15330;51.234;6.754;2024-02-14T14:22:43;0.43;;;0.43;;
28003;SDS011;15330;51.234;6.754;2024-02-14T14:25:09;3.08;;;0.80;;
28003;SDS011;15330;51.234;6.754;2024-02-14T14:27:34;1.20;;;0.70;;
28003;SDS011;15330;51.234;6.754;2024-02-14T14:30:00;0.77;;;0.63;;
28003;SDS011;15330;51.234;6.754;2024-02-14T14:32:26;2.00;;;0.90;;
28003;SDS011;15330;51.234;6.754;2024-02-14T14:34:51;3.00;;;1.27;;
28003;SDS011;15330;51.234;6.754;2024-02-14T14:37:16;2.30;;;0.70;;
28003;SDS011;15330;51.234;6.754;2024-02-14T14:39:42;2.45;;;0.90;;
28003;SDS011;15330;51.234;6.754;2024-02-14T14:42:09;1.70;;;0.77;;
28003;SDS011;15330;51.234;6.754;2024-02-14T14:44:34;1.40;;;0.90;;
28003;SDS011;15330;51.234;6.754;2024-02-14T14:47:00;1.15;;;0.65;;
28003;SDS011;15330;51.234;6.754;2024-02-14T14:49:25;1.95;;;1.05;;
28003;SDS011;15330;51.234;6.754;2024-02-14T14:51:51;0.80;;;0.60;;